sensor_id;sensor_type;location;lat;lon;timestamp;temperature;humidity
39277;DHT22;63149;48.086;-1.606;2022-11-20T06:00:30;9.10;99.90
39277;DHT22;63149;48.086;-1.606;2022-11-20T06:02:57;9.10;99.90
39277;DHT22;63149;48.086;-1.606;2022-11-20T06:05:23;9.10;99.90
39277;DHT22;63149;48.086;-1.606;2022-11-20T06:07:50;9.20;99.90
39277;DHT22;63149;48.086;-1.606;2022-11-20T06:10:17;9.20;99.90
39277;DHT22;63149;48.086;-1.606;2022-11-20T06:12:43;9.20;99.90
39277;DHT22;63149;48.086;-1.606;2022-11-20T06:15:10;9.30;99.90
39277;DHT22;63149;48.086;-1.606;2022-11-20T06:17:38;9.30;99.90
39277;DHT22;63149;48.086;-1.606;2022-11-20T06:20:05;9.20;99.90
39277;DHT22;63149;48.086;-1.606;2022-11-20T06:22:32;9.10;99.90
39277;DHT22;63149;48.086;-1.606;2022-11-20T06:24:59;9.10;99.90
39277;DHT22;63149;48.086;-1.606;2022-11-20T06:27:26;9.10;99.90
39277;DHT22;63149;48.086;-1.606;2022-11-20T06:29:53;9.10;99.90
39277;DHT22;63149;48.086;-1.606;2022-11-20T06:32:20;9.20;99.90
39277;DHT22;63149;48.086;-1.606;2022-11-20T06:34:48;9.20;99.90
39277;DHT22;63149;48.086;-1.606;2022-11-20T06:37:14;9.30;99.90
39277;DHT22;63149;48.086;-1.606;2022-11-20T06:39:41;9.30;99.90
39277;DHT22;63149;48.086;-1.606;2022-11-20T06:42:08;9.30;99.90
39277;DHT22;63149;48.086;-1.606;2022-11-20T06:44:35;9.30;99.90
39277;DHT22;63149;48.086;-1.606;2022-11-20T06:47:01;9.40;99.90
39277;DHT22;63149;48.086;-1.606;2022-11-20T06:49:28;9.40;99.90
39277;DHT22;63149;48.086;-1.606;2022-11-20T06:51:56;9.40;99.90
39277;DHT22;63149;48.086;-1.606;2022-11-20T06:54:23;9.40;99.90
39277;DHT22;63149;48.086;-1.606;2022-11-20T06:56:49;9.50;99.90
39277;DHT22;63149;48.086;-1.606;2022-11-20T06:59:16;9.50;99.90
39277;DHT22;63149;48.086;-1.606;2022-11-20T07:01:43;9.50;99.90
39277;DHT22;63149;48.086;-1.606;2022-11-20T07:04:09;9.50;99.90
39277;DHT22;63149;48.086;-1.606;2022-11-20T07:06:36;9.50;99.90
39277;DHT22;63149;48.086;-1.606;2022-11-20T07:09:04;9.40;99.90
39277;DHT22;63149;48.086;-1.606;2022-11-20T07:11:31;9.50;99.90
39277;DHT22;63149;48.086;-1.606;2022-11-20T07:13:58;9.50;99.90
39277;DHT22;63149;48.086;-1.606;2022-11-20T07:16:24;9.50;99.90
39277;DHT22;63149;48.086;-1.606;2022-11-20T07:18:51;9.50;99.90
39277;DHT22;63149;48.086;-1.606;2022-11-20T07:21:18;9.50;99.90
39277;DHT22;63149;48.086;-1.606;2022-11-20T07:23:44;9.50;99.90
39277;DHT22;63149;48.086;-1.606;2022-11-20T07:26:13;9.50;99.90
39277;DHT22;63149;48.086;-1.606;2022-11-20T07:28:39;9.50;99.90
39277;DHT22;63149;48.086;-1.606;2022-11-20T07:31:06;9.50;99.90
39277;DHT22;63149;48.086;-1.606;2022-11-20T07:33:33;9.50;99.90
39277;DHT22;63149;48.086;-1.606;2022-11-20T07:35:59;9.40;99.90
39277;DHT22;63149;48.086;-1.606;2022-11-20T07:38:26;9.40;99.90
39277;DHT22;63149;48.086;-1.606;2022-11-20T07:40:53;9.30;99.90
39277;DHT22;63149;48.086;-1.606;2022-11-20T07:43:21;9.50;99.90
39277;DHT22;63149;48.086;-1.606;2022-11-20T07:45:48;9.40;99.90
39277;DHT22;63149;48.086;-1.606;2022-11-20T07:48:15;9.40;99.90
39277;DHT22;63149;48.086;-1.606;2022-11-20T07:50:41;9.40;99.90
39277;DHT22;63149;48.086;-1.606;2022-11-20T07:53:08;9.40;99.90
39277;DHT22;63149;48.086;-1.606;2022-11-20T07:55:35;9.30;99.90
39277;DHT22;63149;48.086;-1.606;2022-11-20T07:58:02;9.40;99.90
39277;DHT22;63149;48.086;-1.606;2022-11-20T08:00:30;9.30;99.90
39277;DHT22;63149;48.086;-1.606;2022-11-20T08:02:56;9.30;99.90
39277;DHT22;63149;48.086;-1.606;2022-11-20T08:05:24;9.30;99.90
39277;DHT22;63149;48.086;-1.606;2022-11-20T08:07:50;9.30;99.90
39277;DHT22;63149;48.086;-1.606;2022-11-20T08:10:17;9.40;99.90
39277;DHT22;63149;48.086;-1.606;2022-11-20T08:12:44;9.40;99.90
39277;DHT22;63149;48.086;-1.606;2022-11-20T08:15:30;9.30;99.90
39277;DHT22;63149;48.086;-1.606;2022-11-20T08:18:01;9.40;99.90
39277;DHT22;63149;48.086;-1.606;2022-11-20T08:20:28;9.40;99.90
39277;DHT22;63149;48.086;-1.606;2022-11-20T08:22:57;9.30;99.90
39277;DHT22;63149;48.086;-1.606;2022-11-20T08:25:24;9.30;99.90
39277;DHT22;63149;48.086;-1.606;2022-11-20T08:27:50;9.30;99.90
39277;DHT22;63149;48.086;-1.606;2022-11-20T08:30:17;9.40;99.90
39277;DHT22;63149;48.086;-1.606;2022-11-20T08:32:45;9.40;99.90
39277;DHT22;63149;48.086;-1.606;2022-11-20T08:35:12;9.40;99.90
39277;DHT22;63149;48.086;-1.606;2022-11-20T08:37:39;9.40;99.90
39277;DHT22;63149;48.086;-1.606;2022-11-20T08:40:07;9.50;99.90
39277;DHT22;63149;48.086;-1.606;2022-11-20T08:42:34;9.60;99.90
39277;DHT22;63149;48.086;-1.606;2022-11-20T08:45:01;9.70;99.90
39277;DHT22;63149;48.086;-1.606;2022-11-20T08:47:28;9.70;99.90
39277;DHT22;63149;48.086;-1.606;2022-11-20T08:49:56;9.70;99.90
39277;DHT22;63149;48.086;-1.606;2022-11-20T08:52:23;9.80;99.90
39277;DHT22;63149;48.086;-1.606;2022-11-20T08:54:49;9.80;99.90
39277;DHT22;63149;48.086;-1.606;2022-11-20T08:57:16;9.90;99.90
39277;DHT22;63149;48.086;-1.606;2022-11-20T08:59:43;9.90;99.90
39277;DHT22;63149;48.086;-1.606;2022-11-20T09:02:09;10.00;99.90
39277;DHT22;63149;48.086;-1.606;2022-11-20T09:04:37;10.10;99.90
39277;DHT22;63149;48.086;-1.606;2022-11-20T09:07:05;10.10;99.90
39277;DHT22;63149;48.086;-1.606;2022-11-20T09:09:32;10.10;99.90
39277;DHT22;63149;48.086;-1.606;2022-11-20T09:11:59;10.30;99.90
39277;DHT22;63149;48.086;-1.606;2022-11-20T09:14:25;10.30;99.90
39277;DHT22;63149;48.086;-1.606;2022-11-20T09:16:54;10.40;99.90
39277;DHT22;63149;48.086;-1.606;2022-11-20T09:19:21;10.50;99.90
39277;DHT22;63149;48.086;-1.606;2022-11-20T09:21:48;10.50;99.90
39277;DHT22;63149;48.086;-1.606;2022-11-20T09:24:16;10.50;99.90
39277;DHT22;63149;48.086;-1.606;2022-11-20T09:26:42;10.60;99.90
39277;DHT22;63149;48.086;-1.606;2022-11-20T09:29:09;10.80;99.90
39277;DHT22;63149;48.086;-1.606;2022-11-20T09:31:36;11.10;99.90
39277;DHT22;63149;48.086;-1.606;2022-11-20T09:34:03;11.60;99.90
39277;DHT22;63149;48.086;-1.606;2022-11-20T09:36:29;12.40;99.90
39277;DHT22;63149;48.086;-1.606;2022-11-20T09:38:56;12.90;99.90
39277;DHT22;63149;48.086;-1.606;2022-11-20T09:41:29;13.20;99.90
39277;DHT22;63149;48.086;-1.606;2022-11-20T09:44:00;12.80;99.90
39277;DHT22;63149;48.086;-1.606;2022-11-20T09:46:33;13.00;99.90
39277;DHT22;63149;48.086;-1.606;2022-11-20T09:49:09;13.00;99.90
39277;DHT22;63149;48.086;-1.606;2022-11-20T09:51:43;13.40;99.90
39277;DHT22;63149;48.086;-1.606;2022-11-20T09:54:15;13.90;99.90
39277;DHT22;63149;48.086;-1.606;2022-11-20T09:56:44;14.80;99.90
39277;DHT22;63149;48.086;-1.606;2022-11-20T09:59:15;15.40;99.90
39277;DHT22;63149;48.086;-1.606;2022-11-20T10:01:44;16.30;99.90
39277;DHT22;63149;48.086;-1.606;2022-11-20T10:04:13;15.40;99.90
39277;DHT22;63149;48.086;-1.606;2022-11-20T10:06:41;15.50;99.90
39277;DHT22;63149;48.086;-1.606;2022-11-20T10:09:15;15.60;99.90
39277;DHT22;63149;48.086;-1.606;2022-11-20T10:11:48;15.00;99.90
39277;DHT22;63149;48.086;-1.606;2022-11-20T10:14:21;15.00;99.90
39277;DHT22;63149;48.086;-1.606;2022-11-20T10:16:53;14.60;99.90
39277;DHT22;63149;48.086;-1.606;2022-11-20T10:19:26;14.00;99.90
39277;DHT22;63149;48.086;-1.606;2022-11-20T10:21:59;14.00;99.90
39277;DHT22;63149;48.086;-1.606;2022-11-20T10:24:34;13.90;99.90
39277;DHT22;63149;48.086;-1.606;2022-11-20T10:27:09;14.10;99.90
39277;DHT22;63149;48.086;-1.606;2022-11-20T10:29:38;14.00;99.90
39277;DHT22;63149;48.086;-1.606;2022-11-20T10:32:07;13.80;99.90
39277;DHT22;63149;48.086;-1.606;2022-11-20T10:34:38;13.80;99.90
39277;DHT22;63149;48.086;-1.606;2022-11-20T10:37:09;13.70;99.90
39277;DHT22;63149;48.086;-1.606;2022-11-20T10:39:39;13.80;99.90
39277;DHT22;63149;48.086;-1.606;2022-11-20T10:42:10;13.90;99.90
39277;DHT22;63149;48.086;-1.606;2022-11-20T10:44:37;13.90;99.90
39277;DHT22;63149;48.086;-1.606;2022-11-20T10:47:23;14.10;99.90
39277;DHT22;63149;48.086;-1.606;2022-11-20T10:49:51;14.10;99.90
39277;DHT22;63149;48.086;-1.606;2022-11-20T10:52:20;14.00;99.90
39277;DHT22;63149;48.086;-1.606;2022-11-20T10:54:51;14.10;99.90
39277;DHT22;63149;48.086;-1.606;2022-11-20T10:57:23;14.20;99.90
39277;DHT22;63149;48.086;-1.606;2022-11-20T11:00:00;13.90;99.90
39277;DHT22;63149;48.086;-1.606;2022-11-20T11:02:34;13.70;99.90
39277;DHT22;63149;48.086;-1.606;2022-11-20T11:05:05;13.70;99.90
39277;DHT22;63149;48.086;-1.606;2022-11-20T11:07:35;13.60;99.90
39277;DHT22;63149;48.086;-1.606;2022-11-20T11:10:05;13.60;99.90
39277;DHT22;63149;48.086;-1.606;2022-11-20T11:12:42;13.70;99.90
39277;DHT22;63149;48.086;-1.606;2022-11-20T11:15:11;13.60;99.90
39277;DHT22;63149;48.086;-1.606;2022-11-20T11:17:45;13.70;99.90
39277;DHT22;63149;48.086;-1.606;2022-11-20T11:20:15;13.50;99.90
39277;DHT22;63149;48.086;-1.606;2022-11-20T11:22:43;13.20;99.90
39277;DHT22;63149;48.086;-1.606;2022-11-20T11:25:18;13.10;99.90
39277;DHT22;63149;48.086;-1.606;2022-11-20T11:27:47;12.90;99.90
39277;DHT22;63149;48.086;-1.606;2022-11-20T11:30:14;12.90;99.90
39277;DHT22;63149;48.086;-1.606;2022-11-20T11:32:42;13.10;99.90
39277;DHT22;63149;48.086;-1.606;2022-11-20T11:35:18;13.40;99.90
39277;DHT22;63149;48.086;-1.606;2022-11-20T11:37:45;13.50;99.90
39277;DHT22;63149;48.086;-1.606;2022-11-20T11:40:13;13.40;99.90
39277;DHT22;63149;48.086;-1.606;2022-11-20T11:42:41;13.30;99.90
39277;DHT22;63149;48.086;-1.606;2022-11-20T11:45:13;13.30;99.90
39277;DHT22;63149;48.086;-1.606;2022-11-20T11:47:43;13.20;99.90
39277;DHT22;63149;48.086;-1.606;2022-11-20T11:50:14;13.00;99.90
39277;DHT22;63149;48.086;-1.606;2022-11-20T11:52:43;13.10;99.90
39277;DHT22;63149;48.086;-1.606;2022-11-20T11:55:12;14.20;99.90
39277;DHT22;63149;48.086;-1.606;2022-11-20T11:57:41;14.20;99.90
39277;DHT22;63149;48.086;-1.606;2022-11-20T12:00:13;16.20;99.90
39277;DHT22;63149;48.086;-1.606;2022-11-20T12:02:43;17.30;99.90
39277;DHT22;63149;48.086;-1.606;2022-11-20T12:05:18;17.60;99.90
39277;DHT22;63149;48.086;-1.606;2022-11-20T12:07:45;17.10;99.90
39277;DHT22;63149;48.086;-1.606;2022-11-20T12:10:18;18.50;99.90
39277;DHT22;63149;48.086;-1.606;2022-11-20T12:12:48;18.20;99.90
39277;DHT22;63149;48.086;-1.606;2022-11-20T12:15:20;17.90;99.90
39277;DHT22;63149;48.086;-1.606;2022-11-20T12:17:49;16.90;99.90
39277;DHT22;63149;48.086;-1.606;2022-11-20T12:20:16;16.70;99.90
39277;DHT22;63149;48.086;-1.606;2022-11-20T12:22:44;16.70;99.90
39277;DHT22;63149;48.086;-1.606;2022-11-20T12:25:16;15.80;99.90
39277;DHT22;63149;48.086;-1.606;2022-11-20T12:27:49;15.70;99.90
39277;DHT22;63149;48.086;-1.606;2022-11-20T12:30:21;15.80;99.90
39277;DHT22;63149;48.086;-1.606;2022-11-20T12:32:55;16.60;99.90
39277;DHT22;63149;48.086;-1.606;2022-11-20T12:41:01;17.00;99.90
39277;DHT22;63149;48.086;-1.606;2022-11-20T12:43:33;17.10;99.90
39277;DHT22;63149;48.086;-1.606;2022-11-20T12:46:37;16.00;99.90
39277;DHT22;63149;48.086;-1.606;2022-11-20T12:49:12;16.70;99.90
39277;DHT22;63149;48.086;-1.606;2022-11-20T12:51:48;17.30;99.90
39277;DHT22;63149;48.086;-1.606;2022-11-20T12:54:26;17.90;99.90
39277;DHT22;63149;48.086;-1.606;2022-11-20T12:56:57;18.00;99.90
39277;DHT22;63149;48.086;-1.606;2022-11-20T12:59:33;17.60;99.90
39277;DHT22;63149;48.086;-1.606;2022-11-20T13:02:03;17.10;99.90
39277;DHT22;63149;48.086;-1.606;2022-11-20T13:04:48;17.20;99.90
39277;DHT22;63149;48.086;-1.606;2022-11-20T13:07:22;18.40;99.90
39277;DHT22;63149;48.086;-1.606;2022-11-20T13:09:53;18.20;99.90
39277;DHT22;63149;48.086;-1.606;2022-11-20T13:12:24;16.00;99.90
39277;DHT22;63149;48.086;-1.606;2022-11-20T13:14:52;15.40;99.90
39277;DHT22;63149;48.086;-1.606;2022-11-20T13:17:24;14.80;99.90
39277;DHT22;63149;48.086;-1.606;2022-11-20T13:19:53;14.70;99.90
39277;DHT22;63149;48.086;-1.606;2022-11-20T13:22:24;15.00;99.90
39277;DHT22;63149;48.086;-1.606;2022-11-20T13:24:51;16.40;99.90
39277;DHT22;63149;48.086;-1.606;2022-11-20T13:27:18;16.90;99.90
39277;DHT22;63149;48.086;-1.606;2022-11-20T13:29:46;17.50;99.90
39277;DHT22;63149;48.086;-1.606;2022-11-20T13:32:14;17.60;99.90
39277;DHT22;63149;48.086;-1.606;2022-11-20T13:34:51;16.50;99.90
39277;DHT22;63149;48.086;-1.606;2022-11-20T13:37:24;15.50;99.90
39277;DHT22;63149;48.086;-1.606;2022-11-20T13:39:51;15.60;99.90
39277;DHT22;63149;48.086;-1.606;2022-11-20T13:42:23;15.40;99.90
39277;DHT22;63149;48.086;-1.606;2022-11-20T13:44:53;15.30;99.90
39277;DHT22;63149;48.086;-1.606;2022-11-20T13:47:20;14.90;99.90
39277;DHT22;63149;48.086;-1.606;2022-11-20T13:49:48;14.70;99.90
39277;DHT22;63149;48.086;-1.606;2022-11-20T13:55:05;14.40;99.90
39277;DHT22;63149;48.086;-1.606;2022-11-20T13:57:41;14.20;99.90
39277;DHT22;63149;48.086;-1.606;2022-11-20T14:00:12;14.10;99.90
39277;DHT22;63149;48.086;-1.606;2022-11-20T14:02:39;14.10;99.90
39277;DHT22;63149;48.086;-1.606;2022-11-20T14:05:11;14.00;99.90
39277;DHT22;63149;48.086;-1.606;2022-11-20T14:07:41;14.00;99.90
39277;DHT22;63149;48.086;-1.606;2022-11-20T14:10:19;13.90;99.90
39277;DHT22;63149;48.086;-1.606;2022-11-20T14:12:46;13.70;99.90
39277;DHT22;63149;48.086;-1.606;2022-11-20T14:15:23;13.60;99.90
39277;DHT22;63149;48.086;-1.606;2022-11-20T14:17:50;13.40;99.90
39277;DHT22;63149;48.086;-1.606;2022-11-20T14:20:17;13.40;99.90
39277;DHT22;63149;48.086;-1.606;2022-11-20T14:22:48;13.30;99.90
39277;DHT22;63149;48.086;-1.606;2022-11-20T14:25:20;13.30;99.90
39277;DHT22;63149;48.086;-1.606;2022-11-20T14:27:50;13.20;99.90
39277;DHT22;63149;48.086;-1.606;2022-11-20T14:30:18;13.20;99.90
39277;DHT22;63149;48.086;-1.606;2022-11-20T14:32:45;13.00;99.90
39277;DHT22;63149;48.086;-1.606;2022-11-20T14:35:13;13.00;99.90
39277;DHT22;63149;48.086;-1.606;2022-11-20T14:37:44;13.00;99.90
39277;DHT22;63149;48.086;-1.606;2022-11-20T14:40:26;12.90;99.90
39277;DHT22;63149;48.086;-1.606;2022-11-20T14:42:53;12.90;99.90
39277;DHT22;63149;48.086;-1.606;2022-11-20T14:45:20;12.90;99.90
39277;DHT22;63149;48.086;-1.606;2022-11-20T14:47:47;12.90;99.90
39277;DHT22;63149;48.086;-1.606;2022-11-20T14:50:16;12.80;99.90
39277;DHT22;63149;48.086;-1.606;2022-11-20T14:52:49;12.90;99.90
39277;DHT22;63149;48.086;-1.606;2022-11-20T14:55:26;12.80;99.90
39277;DHT22;63149;48.086;-1.606;2022-11-20T14:57:54;12.80;99.90
39277;DHT22;63149;48.086;-1.606;2022-11-20T15:00:21;12.70;99.90
39277;DHT22;63149;48.086;-1.606;2022-11-20T15:02:49;12.70;99.90
39277;DHT22;63149;48.086;-1.606;2022-11-20T15:05:16;12.60;99.90
39277;DHT22;63149;48.086;-1.606;2022-11-20T15:07:44;12.60;99.90
39277;DHT22;63149;48.086;-1.606;2022-11-20T15:10:12;12.50;99.90
39277;DHT22;63149;48.086;-1.606;2022-11-20T15:12:45;12.50;99.90
39277;DHT22;63149;48.086;-1.606;2022-11-20T15:15:13;12.50;99.90
39277;DHT22;63149;48.086;-1.606;2022-11-20T15:17:41;12.40;99.90
39277;DHT22;63149;48.086;-1.606;2022-11-20T15:20:09;12.30;99.90
39277;DHT22;63149;48.086;-1.606;2022-11-20T15:22:38;12.30;99.90
39277;DHT22;63149;48.086;-1.606;2022-11-20T15:25:10;12.20;99.90
39277;DHT22;63149;48.086;-1.606;2022-11-20T15:27:37;12.20;99.90
39277;DHT22;63149;48.086;-1.606;2022-11-20T15:30:07;12.20;99.90
39277;DHT22;63149;48.086;-1.606;2022-11-20T15:32:38;12.10;99.90
39277;DHT22;63149;48.086;-1.606;2022-11-20T15:35:05;12.10;99.90
39277;DHT22;63149;48.086;-1.606;2022-11-20T15:37:32;12.00;99.90
39277;DHT22;63149;48.086;-1.606;2022-11-20T15:39:58;12.00;99.90
39277;DHT22;63149;48.086;-1.606;2022-11-20T15:42:25;11.90;99.90
39277;DHT22;63149;48.086;-1.606;2022-11-20T15:44:52;11.80;99.90
39277;DHT22;63149;48.086;-1.606;2022-11-20T15:47:20;11.70;99.90
39277;DHT22;63149;48.086;-1.606;2022-11-20T15:49:50;11.80;99.90
39277;DHT22;63149;48.086;-1.606;2022-11-20T15:52:17;11.80;99.90
39277;DHT22;63149;48.086;-1.606;2022-11-20T15:54:43;11.70;99.90
39277;DHT22;63149;48.086;-1.606;2022-11-20T15:57:10;11.60;99.90
39277;DHT22;63149;48.086;-1.606;2022-11-20T15:59:38;11.60;99.90
39277;DHT22;63149;48.086;-1.606;2022-11-20T16:02:08;11.60;99.90
39277;DHT22;63149;48.086;-1.606;2022-11-20T16:04:36;11.50;99.90
39277;DHT22;63149;48.086;-1.606;2022-11-20T16:07:03;11.40;99.90
39277;DHT22;63149;48.086;-1.606;2022-11-20T16:09:30;11.30;99.90
39277;DHT22;63149;48.086;-1.606;2022-11-20T16:11:57;11.30;99.90
39277;DHT22;63149;48.086;-1.606;2022-11-20T16:14:24;11.20;99.90
39277;DHT22;63149;48.086;-1.606;2022-11-20T16:17:08;11.20;99.90
39277;DHT22;63149;48.086;-1.606;2022-11-20T16:19:37;11.20;99.90
39277;DHT22;63149;48.086;-1.606;2022-11-20T16:22:03;11.20;99.90
39277;DHT22;63149;48.086;-1.606;2022-11-20T16:24:30;11.10;99.90
39277;DHT22;63149;48.086;-1.606;2022-11-20T16:26:57;11.00;99.90
39277;DHT22;63149;48.086;-1.606;2022-11-20T16:29:23;11.00;99.90
39277;DHT22;63149;48.086;-1.606;2022-11-20T16:31:50;10.90;99.90
39277;DHT22;63149;48.086;-1.606;2022-11-20T16:34:17;10.90;99.90
39277;DHT22;63149;48.086;-1.606;2022-11-20T16:36:45;10.90;99.90
39277;DHT22;63149;48.086;-1.606;2022-11-20T16:39:12;10.80;99.90
39277;DHT22;63149;48.086;-1.606;2022-11-20T16:41:39;10.80;99.90
39277;DHT22;63149;48.086;-1.606;2022-11-20T16:44:06;10.80;99.90
39277;DHT22;63149;48.086;-1.606;2022-11-20T16:46:35;10.70;99.90
39277;DHT22;63149;48.086;-1.606;2022-11-20T16:49:02;10.60;99.90
39277;DHT22;63149;48.086;-1.606;2022-11-20T16:51:30;10.60;99.90
39277;DHT22;63149;48.086;-1.606;2022-11-20T16:53:58;10.60;99.90
39277;DHT22;63149;48.086;-1.606;2022-11-20T16:56:27;10.60;99.90
39277;DHT22;63149;48.086;-1.606;2022-11-20T16:58:54;10.50;99.90
39277;DHT22;63149;48.086;-1.606;2022-11-20T17:01:22;10.50;99.90
39277;DHT22;63149;48.086;-1.606;2022-11-20T17:03:53;10.50;99.90
39277;DHT22;63149;48.086;-1.606;2022-11-20T17:06:20;10.50;99.90
39277;DHT22;63149;48.086;-1.606;2022-11-20T17:08:47;10.50;99.90
39277;DHT22;63149;48.086;-1.606;2022-11-20T17:11:16;10.40;99.90
39277;DHT22;63149;48.086;-1.606;2022-11-20T17:13:43;10.30;99.90
39277;DHT22;63149;48.086;-1.606;2022-11-20T17:16:10;10.30;99.90
39277;DHT22;63149;48.086;-1.606;2022-11-20T17:18:38;10.20;99.90
39277;DHT22;63149;48.086;-1.606;2022-11-20T17:21:05;10.10;99.90
39277;DHT22;63149;48.086;-1.606;2022-11-20T17:23:32;10.00;99.90
39277;DHT22;63149;48.086;-1.606;2022-11-20T17:26:00;10.00;99.90
39277;DHT22;63149;48.086;-1.606;2022-11-20T17:28:28;10.00;99.90
39277;DHT22;63149;48.086;-1.606;2022-11-20T17:30:58;10.00;99.90
39277;DHT22;63149;48.086;-1.606;2022-11-20T17:33:24;10.00;99.90
39277;DHT22;63149;48.086;-1.606;2022-11-20T17:35:51;10.00;99.90
39277;DHT22;63149;48.086;-1.606;2022-11-20T17:38:18;9.90;99.90
39277;DHT22;63149;48.086;-1.606;2022-11-20T17:40:45;9.80;99.90
39277;DHT22;63149;48.086;-1.606;2022-11-20T17:43:11;9.80;99.90
39277;DHT22;63149;48.086;-1.606;2022-11-20T17:45:39;9.80;99.90
39277;DHT22;63149;48.086;-1.606;2022-11-20T17:48:06;9.80;99.90
39277;DHT22;63149;48.086;-1.606;2022-11-20T17:50:33;9.70;99.90
39277;DHT22;63149;48.086;-1.606;2022-11-20T17:53:00;9.70;99.90
39277;DHT22;63149;48.086;-1.606;2022-11-20T17:55:26;9.70;99.90
39277;DHT22;63149;48.086;-1.606;2022-11-20T17:58:13;9.60;99.90
39277;DHT22;63149;48.086;-1.606;2022-11-20T18:00:40;9.60;99.90
39277;DHT22;63149;48.086;-1.606;2022-11-20T18:03:07;9.60;99.90
39277;DHT22;63149;48.086;-1.606;2022-11-20T18:05:34;9.60;99.90
39277;DHT22;63149;48.086;-1.606;2022-11-20T18:08:01;9.50;99.90
39277;DHT22;63149;48.086;-1.606;2022-11-20T18:10:27;9.50;99.90
39277;DHT22;63149;48.086;-1.606;2022-11-20T18:12:54;9.50;99.90
39277;DHT22;63149;48.086;-1.606;2022-11-20T18:15:21;9.50;99.90
39277;DHT22;63149;48.086;-1.606;2022-11-20T18:17:49;9.50;99.90
39277;DHT22;63149;48.086;-1.606;2022-11-20T18:20:16;9.50;99.90
39277;DHT22;63149;48.086;-1.606;2022-11-20T18:22:43;9.30;99.90
39277;DHT22;63149;48.086;-1.606;2022-11-20T18:25:10;9.30;99.90
39277;DHT22;63149;48.086;-1.606;2022-11-20T18:27:36;9.30;99.90
39277;DHT22;63149;48.086;-1.606;2022-11-20T18:30:04;9.20;99.90
39277;DHT22;63149;48.086;-1.606;2022-11-20T18:32:30;9.20;99.90
39277;DHT22;63149;48.086;-1.606;2022-11-20T18:34:58;9.20;99.90
39277;DHT22;63149;48.086;-1.606;2022-11-20T18:37:26;9.20;99.90
39277;DHT22;63149;48.086;-1.606;2022-11-20T18:39:52;9.20;99.90
39277;DHT22;63149;48.086;-1.606;2022-11-20T18:42:20;9.20;99.90
39277;DHT22;63149;48.086;-1.606;2022-11-20T18:45:04;9.10;99.90
39277;DHT22;63149;48.086;-1.606;2022-11-20T18:47:33;9.10;99.90
39277;DHT22;63149;48.086;-1.606;2022-11-20T18:50:03;9.10;99.90
39277;DHT22;63149;48.086;-1.606;2022-11-20T18:52:31;9.00;99.90
39277;DHT22;63149;48.086;-1.606;2022-11-20T18:54:59;9.00;99.90
39277;DHT22;63149;48.086;-1.606;2022-11-20T18:57:26;9.00;99.90
39277;DHT22;63149;48.086;-1.606;2022-11-20T18:59:54;9.00;99.90
39277;DHT22;63149;48.086;-1.606;2022-11-20T19:02:21;9.00;99.90
39277;DHT22;63149;48.086;-1.606;2022-11-20T19:04:47;9.00;99.90
39277;DHT22;63149;48.086;-1.606;2022-11-20T19:07:16;9.00;99.90
39277;DHT22;63149;48.086;-1.606;2022-11-20T19:09:43;9.00;99.90
39277;DHT22;63149;48.086;-1.606;2022-11-20T19:12:11;8.90;99.90
39277;DHT22;63149;48.086;-1.606;2022-11-20T19:14:37;8.90;99.90
39277;DHT22;63149;48.086;-1.606;2022-11-20T19:17:04;8.90;99.90
39277;DHT22;63149;48.086;-1.606;2022-11-20T19:19:31;8.90;99.90
39277;DHT22;63149;48.086;-1.606;2022-11-20T19:21:58;8.80;99.90
39277;DHT22;63149;48.086;-1.606;2022-11-20T19:24:26;8.80;99.90
39277;DHT22;63149;48.086;-1.606;2022-11-20T19:26:53;8.80;99.90
39277;DHT22;63149;48.086;-1.606;2022-11-20T19:29:21;8.80;99.90
39277;DHT22;63149;48.086;-1.606;2022-11-20T19:31:48;8.70;99.90
39277;DHT22;63149;48.086;-1.606;2022-11-20T19:34:15;8.70;99.90
39277;DHT22;63149;48.086;-1.606;2022-11-20T19:36:41;8.70;99.90
39277;DHT22;63149;48.086;-1.606;2022-11-20T19:39:09;8.70;99.90
39277;DHT22;63149;48.086;-1.606;2022-11-20T19:41:38;8.80;99.90
39277;DHT22;63149;48.086;-1.606;2022-11-20T19:44:06;8.70;99.90
39277;DHT22;63149;48.086;-1.606;2022-11-20T19:46:34;8.80;99.90
39277;DHT22;63149;48.086;-1.606;2022-11-20T19:49:01;8.70;99.90
39277;DHT22;63149;48.086;-1.606;2022-11-20T19:51:28;8.70;99.90
39277;DHT22;63149;48.086;-1.606;2022-11-20T19:53:55;8.70;99.90
39277;DHT22;63149;48.086;-1.606;2022-11-20T19:56:22;8.70;99.90
39277;DHT22;63149;48.086;-1.606;2022-11-20T19:58:51;8.70;99.90
39277;DHT22;63149;48.086;-1.606;2022-11-20T20:01:18;8.70;99.90
39277;DHT22;63149;48.086;-1.606;2022-11-20T20:03:45;8.70;99.90
39277;DHT22;63149;48.086;-1.606;2022-11-20T20:06:13;8.60;99.90
39277;DHT22;63149;48.086;-1.606;2022-11-20T20:08:40;8.70;99.90
39277;DHT22;63149;48.086;-1.606;2022-11-20T20:11:10;8.70;99.90
39277;DHT22;63149;48.086;-1.606;2022-11-20T20:13:38;8.60;99.90
39277;DHT22;63149;48.086;-1.606;2022-11-20T20:16:07;8.60;99.90
39277;DHT22;63149;48.086;-1.606;2022-11-20T20:18:33;8.60;99.90
39277;DHT22;63149;48.086;-1.606;2022-11-20T20:21:01;8.60;99.90
39277;DHT22;63149;48.086;-1.606;2022-11-20T20:23:28;8.60;99.90
39277;DHT22;63149;48.086;-1.606;2022-11-20T20:25:55;8.60;99.90
39277;DHT22;63149;48.086;-1.606;2022-11-20T20:28:21;8.70;99.90
39277;DHT22;63149;48.086;-1.606;2022-11-20T20:30:48;8.70;99.90
39277;DHT22;63149;48.086;-1.606;2022-11-20T20:33:16;8.70;99.90
39277;DHT22;63149;48.086;-1.606;2022-11-20T20:35:43;8.70;99.90
39277;DHT22;63149;48.086;-1.606;2022-11-20T20:38:10;8.60;99.90
39277;DHT22;63149;48.086;-1.606;2022-11-20T20:40:36;8.60;99.90
39277;DHT22;63149;48.086;-1.606;2022-11-20T20:43:03;8.60;99.90
39277;DHT22;63149;48.086;-1.606;2022-11-20T20:45:30;8.60;99.90
39277;DHT22;63149;48.086;-1.606;2022-11-20T20:47:57;8.60;99.90
39277;DHT22;63149;48.086;-1.606;2022-11-20T20:50:25;8.50;99.90
39277;DHT22;63149;48.086;-1.606;2022-11-20T20:52:52;8.60;99.90
39277;DHT22;63149;48.086;-1.606;2022-11-20T20:55:19;8.60;99.90
39277;DHT22;63149;48.086;-1.606;2022-11-20T20:57:45;8.60;99.90
39277;DHT22;63149;48.086;-1.606;2022-11-20T21:00:12;8.50;99.90
39277;DHT22;63149;48.086;-1.606;2022-11-20T21:02:39;8.60;99.90
39277;DHT22;63149;48.086;-1.606;2022-11-20T21:05:06;8.60;99.90
39277;DHT22;63149;48.086;-1.606;2022-11-20T21:07:34;8.60;99.90
39277;DHT22;63149;48.086;-1.606;2022-11-20T21:10:22;8.60;99.90
39277;DHT22;63149;48.086;-1.606;2022-11-20T21:12:49;8.60;99.90
39277;DHT22;63149;48.086;-1.606;2022-11-20T21:15:15;8.60;99.90
39277;DHT22;63149;48.086;-1.606;2022-11-20T21:17:42;8.60;99.90
39277;DHT22;63149;48.086;-1.606;2022-11-20T21:20:10;8.60;99.90
39277;DHT22;63149;48.086;-1.606;2022-11-20T21:22:59;8.60;99.90
39277;DHT22;63149;48.086;-1.606;2022-11-20T21:25:25;8.60;99.90
39277;DHT22;63149;48.086;-1.606;2022-11-20T21:27:51;8.60;99.90
39277;DHT22;63149;48.086;-1.606;2022-11-20T21:30:18;8.70;99.90
39277;DHT22;63149;48.086;-1.606;2022-11-20T21:32:45;8.70;99.90
39277;DHT22;63149;48.086;-1.606;2022-11-20T21:35:12;8.70;99.90
39277;DHT22;63149;48.086;-1.606;2022-11-20T21:37:38;8.60;99.90
39277;DHT22;63149;48.086;-1.606;2022-11-20T21:40:07;8.60;99.90